createdAt,value
2023-04-30T00:02:21.934Z,11.35
2023-04-30T00:04:48.936Z,10.95
2023-04-30T00:07:15.908Z,10.23
2023-04-30T00:09:42.980Z,10.15
2023-04-30T00:12:10.340Z,13.80
2023-04-30T00:14:37.399Z,10.32
2023-04-30T00:17:04.331Z,8.90
2023-04-30T00:19:31.404Z,16.40
2023-04-30T00:22:00.286Z,10.57
2023-04-30T00:24:28.114Z,10.85
2023-04-30T00:26:55.017Z,10.48
2023-04-30T00:29:21.962Z,11.20
2023-04-30T00:31:49.177Z,11.75
2023-04-30T00:34:16.480Z,9.57
2023-04-30T00:36:43.497Z,11.40
2023-04-30T00:39:10.522Z,15.55
2023-04-30T00:41:37.916Z,10.20
2023-04-30T00:44:05.102Z,10.43
2023-04-30T00:46:32.450Z,13.38
2023-04-30T00:49:02.316Z,10.93
2023-04-30T00:51:29.562Z,10.68
2023-04-30T00:53:56.931Z,11.65
2023-04-30T00:56:24.114Z,12.18
2023-04-30T00:58:54.545Z,10.02
2023-04-30T01:01:21.817Z,11.02
2023-04-30T01:03:49.186Z,10.13
2023-04-30T01:06:16.364Z,12.65
2023-04-30T01:08:44.440Z,13.70
2023-04-30T01:11:37.861Z,14.18
2023-04-30T01:14:17.770Z,12.83
2023-04-30T01:17:08.874Z,9.18
2023-04-30T01:19:42.692Z,9.57
2023-04-30T01:22:23.261Z,11.43
2023-04-30T01:25:12.427Z,12.25
2023-04-30T01:28:07.099Z,13.43
2023-04-30T01:30:35.750Z,12.10
2023-04-30T01:33:03.769Z,11.63
2023-04-30T01:35:43.345Z,12.90
2023-04-30T01:38:25.356Z,10.68
2023-04-30T01:40:58.181Z,11.48
2023-04-30T01:43:46.263Z,10.93
2023-04-30T01:46:29.797Z,12.43
2023-04-30T01:49:15.976Z,8.88
2023-04-30T01:51:47.246Z,10.68
2023-04-30T01:54:19.793Z,11.38
2023-04-30T01:56:57.923Z,11.93
2023-04-30T01:59:25.848Z,11.32
2023-04-30T02:01:56.449Z,10.05
2023-04-30T02:04:23.535Z,10.63
2023-04-30T02:06:50.550Z,12.27
2023-04-30T02:09:17.649Z,13.35
2023-04-30T02:11:44.615Z,9.80
2023-04-30T02:14:11.738Z,12.98
2023-04-30T02:16:58.792Z,10.88
2023-04-30T02:19:25.755Z,12.98
2023-04-30T02:21:53.974Z,9.98
2023-04-30T02:24:21.150Z,11.98
2023-04-30T02:26:48.412Z,11.05
2023-04-30T02:29:16.359Z,11.88
2023-04-30T02:31:43.509Z,10.13
2023-04-30T02:34:11.424Z,11.27
2023-04-30T02:36:38.761Z,11.88
2023-04-30T02:39:06.388Z,10.07
2023-04-30T02:41:33.314Z,11.60
2023-04-30T02:44:00.794Z,12.73
2023-04-30T02:46:27.905Z,12.32
2023-04-30T02:48:54.899Z,12.57
2023-04-30T02:51:21.922Z,12.02
2023-04-30T02:53:49.747Z,12.63
2023-04-30T02:56:16.751Z,14.02
2023-04-30T02:58:43.745Z,11.88
2023-04-30T03:01:10.854Z,15.18
2023-04-30T03:03:37.973Z,12.18
2023-04-30T03:06:05.380Z,13.38
2023-04-30T03:08:32.376Z,13.68
2023-04-30T03:10:59.485Z,12.48
2023-04-30T03:13:26.487Z,11.13
2023-04-30T03:16:01.223Z,12.38
2023-04-30T03:18:29.235Z,12.00
2023-04-30T03:20:56.963Z,11.02
2023-04-30T03:23:24.439Z,11.52
2023-04-30T03:25:51.941Z,15.45
2023-04-30T03:28:18.864Z,13.88
2023-04-30T03:30:45.905Z,13.27
2023-04-30T03:33:13.405Z,15.02
2023-04-30T03:35:40.547Z,13.10
2023-04-30T03:38:07.504Z,13.23
2023-04-30T03:40:34.509Z,13.38
2023-04-30T03:43:01.566Z,13.15
2023-04-30T03:45:28.742Z,12.00
2023-04-30T03:47:56.026Z,14.30
2023-04-30T03:50:23.424Z,12.98
2023-04-30T03:52:50.531Z,13.43
2023-04-30T03:55:17.672Z,11.63
2023-04-30T03:57:44.893Z,13.43
2023-04-30T04:00:13.787Z,16.85
2023-04-30T04:02:43.574Z,13.25
2023-04-30T04:05:11.704Z,11.27
2023-04-30T04:07:38.696Z,11.25
2023-04-30T04:10:06.347Z,14.50
2023-04-30T04:12:33.328Z,14.68
2023-04-30T04:15:00.492Z,12.32
2023-04-30T04:17:27.624Z,15.85
2023-04-30T04:19:55.027Z,11.82
2023-04-30T04:22:22.498Z,13.77
2023-04-30T04:24:49.736Z,14.18
2023-04-30T04:27:20.596Z,13.32
2023-04-30T04:29:48.142Z,12.75
2023-04-30T04:32:15.271Z,16.13
2023-04-30T04:34:43.810Z,15.65
2023-04-30T04:37:12.441Z,12.68
2023-04-30T04:39:39.599Z,14.90
2023-04-30T04:42:07.258Z,11.77
2023-04-30T04:44:36.484Z,12.05
2023-04-30T04:47:04.462Z,13.18
2023-04-30T04:49:31.488Z,12.80
2023-04-30T04:51:58.518Z,10.25
2023-04-30T04:54:26.108Z,12.73
2023-04-30T04:56:53.030Z,11.35
2023-04-30T04:59:20.048Z,12.63
2023-04-30T05:01:48.841Z,12.63
2023-04-30T05:04:16.074Z,11.40
2023-04-30T05:06:45.686Z,11.50
2023-04-30T05:09:13.037Z,12.27
2023-04-30T05:11:41.768Z,14.18
2023-04-30T05:14:08.862Z,11.63
2023-04-30T05:16:35.981Z,13.85
2023-04-30T05:19:02.902Z,14.75
2023-04-30T05:21:29.935Z,12.70
2023-04-30T05:23:56.856Z,13.82
2023-04-30T05:26:24.583Z,13.75
2023-04-30T05:28:52.508Z,14.30
2023-04-30T05:31:21.050Z,13.75
2023-04-30T05:33:48.512Z,13.85
2023-04-30T05:36:15.586Z,13.20
2023-04-30T05:38:42.751Z,11.50
2023-04-30T05:41:12.715Z,11.73
2023-04-30T05:43:39.677Z,14.65
2023-04-30T05:46:07.209Z,12.43
2023-04-30T05:48:34.441Z,12.38
2023-04-30T05:51:01.474Z,11.88
2023-04-30T05:53:28.452Z,12.57
2023-04-30T05:55:55.596Z,16.48
2023-04-30T05:58:22.675Z,12.88
2023-04-30T06:00:52.142Z,16.02
2023-04-30T06:03:19.788Z,16.13
2023-04-30T06:05:47.771Z,15.65
2023-04-30T06:08:15.031Z,15.25
2023-04-30T06:10:42.591Z,13.32
2023-04-30T06:13:09.755Z,12.45
2023-04-30T06:15:36.801Z,16.35
2023-04-30T06:18:04.034Z,11.98
2023-04-30T06:20:31.069Z,16.83
2023-04-30T06:22:58.092Z,11.75
2023-04-30T06:25:25.013Z,12.07
2023-04-30T06:27:54.257Z,10.88
2023-04-30T06:30:21.329Z,11.23
2023-04-30T06:32:48.599Z,10.52
2023-04-30T06:35:15.747Z,10.73
2023-04-30T06:37:42.949Z,11.98
2023-04-30T06:40:10.154Z,11.35
2023-04-30T06:42:37.076Z,12.10
2023-04-30T06:45:06.734Z,10.07
2023-04-30T06:47:38.419Z,9.80
2023-04-30T06:50:05.946Z,14.90
2023-04-30T06:52:32.895Z,12.68
2023-04-30T06:54:59.965Z,8.90
2023-04-30T06:57:27.827Z,8.70
2023-04-30T06:59:55.472Z,9.00
2023-04-30T07:02:22.698Z,7.93
2023-04-30T07:04:49.691Z,8.25
2023-04-30T07:07:16.786Z,7.03
2023-04-30T07:09:43.653Z,7.32
2023-04-30T07:12:13.744Z,8.65
2023-04-30T07:14:40.919Z,6.45
2023-04-30T07:17:07.950Z,8.10
2023-04-30T07:19:34.905Z,6.28
2023-04-30T07:22:02.022Z,8.63
2023-04-30T07:24:29.574Z,7.78
2023-04-30T07:26:56.569Z,8.23
2023-04-30T07:29:23.547Z,6.57
2023-04-30T07:31:51.800Z,7.00
2023-04-30T07:34:18.826Z,7.13
2023-04-30T07:36:45.705Z,7.60
2023-04-30T07:39:12.864Z,5.25
2023-04-30T07:41:39.860Z,6.28
2023-04-30T07:44:06.809Z,8.52
2023-04-30T07:46:33.865Z,8.70
2023-04-30T07:49:01.048Z,6.03
2023-04-30T07:51:28.213Z,6.97
2023-04-30T07:53:55.735Z,10.38
2023-04-30T07:56:22.725Z,10.38
2023-04-30T07:58:49.798Z,4.95
2023-04-30T08:01:17.240Z,6.93
2023-04-30T08:03:44.398Z,6.03
2023-04-30T08:06:11.355Z,5.47
2023-04-30T08:08:39.696Z,5.18
2023-04-30T08:11:06.694Z,5.88
2023-04-30T08:13:33.889Z,7.40
2023-04-30T08:16:01.050Z,5.97
2023-04-30T08:18:27.973Z,4.38
2023-04-30T08:20:55.016Z,5.45
2023-04-30T08:23:22.041Z,9.20
2023-04-30T08:25:49.422Z,5.63
2023-04-30T08:28:16.408Z,8.63
2023-04-30T08:30:43.796Z,5.00
2023-04-30T08:33:11.524Z,7.85
2023-04-30T08:35:38.478Z,5.65
2023-04-30T08:38:05.502Z,6.72
2023-04-30T08:40:50.102Z,4.75
2023-04-30T08:43:20.365Z,5.72
2023-04-30T08:45:48.400Z,8.00
2023-04-30T08:48:17.037Z,6.57
2023-04-30T08:50:44.000Z,7.97
2023-04-30T08:53:13.371Z,6.38
2023-04-30T08:55:40.956Z,6.55
2023-04-30T08:58:10.492Z,6.32
2023-04-30T09:00:39.232Z,7.60
2023-04-30T09:03:08.615Z,6.05
2023-04-30T09:05:38.503Z,6.03
2023-04-30T09:08:07.915Z,5.35
2023-04-30T09:10:35.782Z,7.10
2023-04-30T09:13:03.863Z,5.55
2023-04-30T09:15:32.387Z,8.88
2023-04-30T09:18:18.868Z,5.82
2023-04-30T09:21:03.095Z,7.18
2023-04-30T09:23:30.908Z,6.43
2023-04-30T09:25:58.094Z,5.93
2023-04-30T09:28:26.737Z,4.53
2023-04-30T09:30:54.518Z,4.03
2023-04-30T09:33:21.629Z,4.95
2023-04-30T09:35:49.352Z,6.05
2023-04-30T09:38:46.185Z,6.65
2023-04-30T09:41:23.732Z,6.53
2023-04-30T09:43:51.377Z,5.15
2023-04-30T09:46:20.587Z,4.93
2023-04-30T09:48:55.879Z,5.38
2023-04-30T09:51:23.134Z,6.75
2023-04-30T09:53:51.754Z,6.55
2023-04-30T09:56:24.676Z,5.35
2023-04-30T09:58:56.346Z,6.13
2023-04-30T10:01:29.846Z,5.90
2023-04-30T10:03:58.451Z,5.78
2023-04-30T10:06:27.324Z,5.82
2023-04-30T10:08:57.841Z,4.03
2023-04-30T10:11:29.075Z,6.45
2023-04-30T10:14:04.128Z,7.47
2023-04-30T10:17:04.173Z,4.43
2023-04-30T10:19:34.092Z,4.85
2023-04-30T10:22:02.497Z,6.55
2023-04-30T10:24:30.622Z,4.35
2023-04-30T10:26:58.731Z,3.78
2023-04-30T10:29:25.978Z,4.78
2023-04-30T10:31:54.862Z,4.85
2023-04-30T10:35:08.128Z,5.20
2023-04-30T10:37:44.012Z,5.65
2023-04-30T10:40:11.761Z,6.55
2023-04-30T10:42:46.449Z,6.47
2023-04-30T10:45:13.447Z,5.95
2023-04-30T10:47:45.820Z,3.92
2023-04-30T10:50:13.818Z,4.95
2023-04-30T10:52:41.138Z,5.18
2023-04-30T10:55:10.092Z,4.18
2023-04-30T10:57:48.542Z,5.50
2023-04-30T11:00:19.665Z,3.63
2023-04-30T11:02:48.950Z,4.55
2023-04-30T11:05:18.666Z,4.60
2023-04-30T11:07:56.688Z,2.30
2023-04-30T11:10:26.468Z,3.95
2023-04-30T11:12:56.083Z,6.13
2023-04-30T11:15:28.255Z,6.63
2023-04-30T11:18:02.222Z,4.32
2023-04-30T11:20:29.397Z,2.38
2023-04-30T11:23:10.083Z,3.83
2023-04-30T11:25:42.535Z,3.60
2023-04-30T11:28:17.960Z,5.45
2023-04-30T11:30:56.422Z,6.75
2023-04-30T11:33:26.022Z,5.15
2023-04-30T11:35:54.165Z,5.28
2023-04-30T11:38:26.420Z,4.55
2023-04-30T11:40:55.120Z,4.72
2023-04-30T11:43:32.050Z,5.05
2023-04-30T11:46:11.662Z,6.05
2023-04-30T11:48:41.126Z,5.88
2023-04-30T11:51:22.214Z,5.57
2023-04-30T11:53:51.830Z,6.07
2023-04-30T11:56:24.410Z,4.28
2023-04-30T11:58:57.767Z,5.10
2023-04-30T12:01:28.845Z,5.50
2023-04-30T12:03:57.543Z,5.70
2023-04-30T12:06:29.342Z,3.72
2023-04-30T12:08:58.380Z,4.30
2023-04-30T12:11:28.072Z,4.78
2023-04-30T12:13:57.045Z,3.90
2023-04-30T12:16:26.038Z,2.58
2023-04-30T12:18:53.268Z,6.07
2023-04-30T12:21:23.313Z,4.50
2023-04-30T12:23:50.883Z,6.35
2023-04-30T12:26:17.990Z,6.00
2023-04-30T12:28:47.813Z,6.15
2023-04-30T12:31:14.923Z,3.78
2023-04-30T12:33:42.213Z,6.60
2023-04-30T12:36:13.442Z,7.10
2023-04-30T12:38:44.170Z,6.53
2023-04-30T12:41:15.565Z,6.85
2023-04-30T12:43:42.620Z,5.22
2023-04-30T12:46:09.642Z,5.50
2023-04-30T12:48:45.942Z,6.40
2023-04-30T12:51:13.174Z,4.47
2023-04-30T12:53:47.085Z,6.25
2023-04-30T12:56:17.921Z,5.75
2023-04-30T12:58:47.691Z,5.43
2023-04-30T13:01:19.596Z,6.85
2023-04-30T13:03:47.075Z,11.48
2023-04-30T13:06:14.548Z,5.95
2023-04-30T13:08:56.185Z,6.63
2023-04-30T13:11:26.443Z,6.65
2023-04-30T13:13:57.260Z,4.85
2023-04-30T13:16:27.512Z,5.45
2023-04-30T13:18:55.171Z,7.22
2023-04-30T13:21:22.725Z,7.57
2023-04-30T13:23:53.717Z,7.07
2023-04-30T13:26:23.613Z,6.72
2023-04-30T13:28:51.359Z,6.65
2023-04-30T13:31:18.788Z,7.18
2023-04-30T13:33:45.836Z,6.80
2023-04-30T13:36:12.977Z,6.75
2023-04-30T13:38:40.169Z,7.00
2023-04-30T13:41:07.267Z,6.05
2023-04-30T13:43:34.488Z,6.63
2023-04-30T13:46:02.077Z,5.85
2023-04-30T13:48:29.429Z,6.38
2023-04-30T13:50:56.667Z,7.75
2023-04-30T13:53:23.702Z,6.85
2023-04-30T13:55:50.842Z,6.20
2023-04-30T13:58:18.204Z,7.03
2023-04-30T14:00:45.312Z,7.75
2023-04-30T14:03:12.812Z,6.95
2023-04-30T14:05:40.010Z,8.00
2023-04-30T14:08:07.001Z,7.07
2023-04-30T14:10:34.088Z,15.73
2023-04-30T14:13:01.065Z,6.65
2023-04-30T14:15:30.702Z,6.68
2023-04-30T14:17:58.153Z,6.38
2023-04-30T14:20:25.721Z,6.40
2023-04-30T14:22:53.133Z,6.03
2023-04-30T14:25:20.458Z,6.00
2023-04-30T14:27:47.729Z,5.88
2023-04-30T14:30:14.929Z,6.03
2023-04-30T14:32:41.943Z,6.50
2023-04-30T14:35:09.978Z,5.85
2023-04-30T14:37:37.155Z,8.52
2023-04-30T14:40:06.925Z,8.43
2023-04-30T14:42:34.067Z,6.93
2023-04-30T14:45:01.226Z,9.07
2023-04-30T14:47:28.686Z,9.38
2023-04-30T14:49:56.052Z,9.13
2023-04-30T14:52:23.312Z,6.90
2023-04-30T14:54:50.352Z,7.32
2023-04-30T14:57:18.745Z,7.53
2023-04-30T14:59:45.807Z,5.95
2023-04-30T15:02:12.843Z,6.50
2023-04-30T15:04:40.138Z,4.88
2023-04-30T15:07:07.523Z,5.65
2023-04-30T15:09:34.665Z,7.78
2023-04-30T15:12:01.947Z,6.20
2023-04-30T15:14:28.906Z,7.13
2023-04-30T15:16:56.647Z,9.48
2023-04-30T15:19:24.482Z,6.40
2023-04-30T15:21:52.479Z,7.55
2023-04-30T15:24:19.450Z,8.63
2023-04-30T15:26:46.492Z,5.28
2023-04-30T15:29:13.520Z,9.93
2023-04-30T15:31:40.581Z,5.80
2023-04-30T15:34:07.726Z,5.68
2023-04-30T15:36:35.135Z,7.22
2023-04-30T15:39:02.143Z,13.05
2023-04-30T15:41:29.347Z,5.82
2023-04-30T15:43:56.669Z,6.63
2023-04-30T15:46:23.853Z,7.57
2023-04-30T15:48:51.230Z,5.20
2023-04-30T15:51:18.330Z,7.55
2023-04-30T15:53:45.462Z,6.65
2023-04-30T15:56:12.562Z,5.40
2023-04-30T15:58:40.545Z,5.32
2023-04-30T16:01:07.472Z,5.80
2023-04-30T16:03:34.692Z,6.95
2023-04-30T16:06:02.943Z,7.03
2023-04-30T16:08:30.795Z,8.25
2023-04-30T16:10:57.966Z,8.23
2023-04-30T16:13:24.986Z,7.15
2023-04-30T16:15:52.134Z,7.63
2023-04-30T16:18:19.156Z,8.13
2023-04-30T16:20:48.800Z,7.18
2023-04-30T16:23:16.774Z,7.13
2023-04-30T16:25:43.811Z,6.43
2023-04-30T16:28:11.082Z,7.93
2023-04-30T16:30:38.399Z,7.45
2023-04-30T16:33:07.162Z,9.45
2023-04-30T16:35:34.210Z,6.80
2023-04-30T16:38:02.671Z,6.38
2023-04-30T16:40:29.802Z,8.05
2023-04-30T16:42:56.823Z,7.07
2023-04-30T16:45:24.302Z,7.03
2023-04-30T16:47:51.385Z,7.13
2023-04-30T16:50:18.530Z,9.18
2023-04-30T16:52:45.981Z,8.30
2023-04-30T16:55:13.382Z,8.45
2023-04-30T16:57:40.403Z,8.95
2023-04-30T17:00:08.728Z,8.75
2023-04-30T17:02:35.887Z,9.65
2023-04-30T17:05:03.111Z,7.38
2023-04-30T17:07:30.453Z,8.93
2023-04-30T17:09:57.788Z,9.45
2023-04-30T17:12:25.019Z,8.40
2023-04-30T17:14:52.353Z,9.02
2023-04-30T17:17:19.628Z,10.30
2023-04-30T17:19:46.720Z,9.45
2023-04-30T17:22:14.331Z,11.68
2023-04-30T17:24:41.624Z,10.65
2023-04-30T17:27:08.623Z,9.77
2023-04-30T17:29:35.910Z,8.85
2023-04-30T17:32:03.179Z,9.25
2023-04-30T17:34:31.644Z,10.05
2023-04-30T17:36:58.893Z,8.95
2023-04-30T17:39:25.876Z,11.85
2023-04-30T17:41:52.831Z,11.77
2023-04-30T17:44:19.897Z,8.73
2023-04-30T17:46:47.604Z,7.88
2023-04-30T17:49:14.703Z,8.85
2023-04-30T17:51:41.802Z,11.05
2023-04-30T17:54:08.886Z,9.63
2023-04-30T17:56:36.397Z,9.50
2023-04-30T17:59:03.684Z,8.18
2023-04-30T18:01:31.585Z,9.52
2023-04-30T18:04:00.108Z,9.20
2023-04-30T18:06:28.168Z,10.80
2023-04-30T18:08:55.691Z,9.15
2023-04-30T18:11:23.371Z,8.23
2023-04-30T18:13:50.347Z,10.07
2023-04-30T18:16:17.355Z,7.80
2023-04-30T18:18:44.513Z,8.27
2023-04-30T18:21:11.478Z,7.05
2023-04-30T18:23:38.478Z,7.68
2023-04-30T18:26:06.206Z,7.40
2023-04-30T18:28:34.036Z,7.63
2023-04-30T18:31:01.131Z,8.95
2023-04-30T18:33:28.208Z,8.68
2023-04-30T18:35:57.206Z,7.88
2023-04-30T18:38:24.673Z,7.53
2023-04-30T18:40:55.938Z,8.88
2023-04-30T18:43:23.652Z,7.38
2023-04-30T18:45:51.441Z,10.45
2023-04-30T18:48:19.512Z,8.93
2023-04-30T18:50:46.950Z,8.57
2023-04-30T18:53:14.153Z,8.60
2023-04-30T18:55:41.910Z,8.88
2023-04-30T18:58:09.237Z,9.25
2023-04-30T19:00:36.572Z,7.07
2023-04-30T19:03:04.035Z,10.25
2023-04-30T19:05:32.443Z,9.30
2023-04-30T19:07:59.487Z,8.27
2023-04-30T19:10:26.527Z,7.90
2023-04-30T19:12:53.561Z,7.35
2023-04-30T19:15:20.624Z,7.55
2023-04-30T19:17:47.750Z,7.20
2023-04-30T19:20:14.717Z,7.38
2023-04-30T19:22:42.133Z,8.98
2023-04-30T19:25:10.089Z,7.60
2023-04-30T19:27:37.595Z,7.95
2023-04-30T19:30:05.319Z,8.52
2023-04-30T19:32:32.526Z,11.15
2023-04-30T19:34:59.515Z,6.60
2023-04-30T19:37:26.908Z,7.15
2023-04-30T19:39:54.129Z,7.13
2023-04-30T19:42:21.300Z,9.25
2023-04-30T19:44:52.298Z,7.90
2023-04-30T19:47:19.557Z,8.23
2023-04-30T19:49:47.486Z,8.45
2023-04-30T19:52:14.965Z,7.80
2023-04-30T19:54:48.562Z,7.70
2023-04-30T19:57:17.126Z,6.40
2023-04-30T19:59:44.589Z,7.45
2023-04-30T20:02:12.240Z,7.47
2023-04-30T20:04:39.505Z,7.28
2023-04-30T20:07:06.716Z,6.25
2023-04-30T20:09:33.955Z,6.68
2023-04-30T20:12:03.744Z,6.80
2023-04-30T20:14:31.062Z,7.28
2023-04-30T20:16:58.545Z,7.57
2023-04-30T20:19:26.168Z,6.57
2023-04-30T20:21:54.255Z,7.68
2023-04-30T20:24:22.130Z,7.63
2023-04-30T20:26:49.267Z,7.40
2023-04-30T20:29:17.361Z,8.10
2023-04-30T20:31:44.339Z,6.20
2023-04-30T20:34:11.315Z,6.60
2023-04-30T20:36:38.858Z,6.30
2023-04-30T20:39:05.869Z,7.07
2023-04-30T20:41:32.841Z,7.65
2023-04-30T20:44:00.793Z,9.80
2023-04-30T20:46:28.609Z,6.70
2023-04-30T20:49:01.415Z,6.80
2023-04-30T20:51:28.742Z,7.22
2023-04-30T20:53:55.805Z,9.80
2023-04-30T20:56:23.156Z,7.55
2023-04-30T20:58:50.068Z,7.80
2023-04-30T21:01:17.273Z,7.50
2023-04-30T21:03:44.283Z,7.40
2023-04-30T21:06:11.623Z,8.23
2023-04-30T21:08:38.693Z,7.20
2023-04-30T21:11:05.622Z,7.65
2023-04-30T21:13:32.917Z,7.05
2023-04-30T21:15:59.998Z,7.13
2023-04-30T21:18:27.734Z,7.53
2023-04-30T21:21:01.619Z,12.95
2023-04-30T21:23:30.053Z,8.13
2023-04-30T21:25:57.176Z,6.22
2023-04-30T21:28:24.521Z,8.00
2023-04-30T21:30:52.058Z,7.53
2023-04-30T21:33:19.342Z,7.43
2023-04-30T21:35:46.459Z,8.35
2023-04-30T21:38:13.856Z,7.35
2023-04-30T21:40:43.279Z,10.32
2023-04-30T21:43:10.516Z,6.47
2023-04-30T21:45:37.495Z,9.02
2023-04-30T21:48:05.688Z,7.78
2023-04-30T21:50:33.756Z,7.65
2023-04-30T21:53:03.191Z,8.70
2023-04-30T21:55:30.225Z,7.88
2023-04-30T21:57:57.664Z,7.03
2023-04-30T22:00:24.912Z,8.88
2023-04-30T22:02:51.932Z,7.88
2023-04-30T22:05:19.888Z,7.10
2023-04-30T22:07:47.536Z,7.80
2023-04-30T22:10:17.711Z,8.02
2023-04-30T22:12:47.330Z,5.85
2023-04-30T22:15:15.496Z,6.70
2023-04-30T22:17:42.651Z,7.82
2023-04-30T22:20:10.215Z,7.03
2023-04-30T22:22:37.259Z,7.07
2023-04-30T22:25:04.766Z,6.90
2023-04-30T22:27:32.223Z,9.60
2023-04-30T22:29:59.377Z,6.90
2023-04-30T22:32:26.628Z,7.13
2023-04-30T22:34:53.767Z,7.97
2023-04-30T22:37:20.947Z,9.98
2023-04-30T22:39:48.558Z,7.65
2023-04-30T22:42:17.019Z,7.72
2023-04-30T22:44:45.509Z,7.63
2023-04-30T22:47:12.720Z,7.45
2023-04-30T22:49:40.128Z,7.43
2023-04-30T22:52:07.386Z,7.75
2023-04-30T22:54:35.430Z,9.43
2023-04-30T22:57:03.138Z,7.80
2023-04-30T22:59:30.241Z,10.20
2023-04-30T23:01:57.441Z,8.50
2023-04-30T23:04:24.675Z,9.40
2023-04-30T23:06:51.614Z,9.75
2023-04-30T23:09:19.355Z,9.88
2023-04-30T23:11:46.332Z,9.85
2023-04-30T23:14:13.237Z,9.90
2023-04-30T23:16:42.745Z,10.43
2023-04-30T23:19:10.510Z,9.77
2023-04-30T23:21:37.599Z,10.38
2023-04-30T23:24:04.544Z,11.15
2023-04-30T23:26:31.637Z,9.60
2023-04-30T23:28:58.773Z,10.88
2023-04-30T23:31:25.886Z,11.75
2023-04-30T23:33:52.987Z,10.20
2023-04-30T23:36:20.072Z,8.93
2023-04-30T23:38:47.007Z,7.47
2023-04-30T23:41:14.579Z,8.75
2023-04-30T23:43:41.591Z,7.32
2023-04-30T23:46:08.850Z,9.07
2023-04-30T23:48:36.160Z,8.02
2023-04-30T23:51:08.434Z,8.43
2023-04-30T23:53:35.759Z,9.07
2023-04-30T23:56:03.066Z,9.00
2023-04-30T23:58:32.802Z,8.32
